Time;durP1;ratioP1;P1;durP2;ratioP2;P2;SDS_P1;SDS_P2;PMS_P1;PMS_P2;Temp;Humidity;BMP_temperature;BMP_pressure;BME280_temperature;BME280_humidity;BME280_pressure;Samples;Min_cycle;Max_cycle;Signal;HPM_P1;HPM_P2
2021/03/20 00:00:56;;;;;;;2.50;1.52;;;;;;;25.42;30.34;97216.09;5033232;28;20051;-25
2021/03/20 00:03:22;;;;;;;2.55;1.58;;;;;;;25.42;30.38;97216.09;5025953;28;20024;-23
2021/03/20 00:05:47;;;;;;;4.10;1.88;;;;;;;25.42;30.43;97211.72;5029631;28;20037;-23
2021/03/20 00:08:13;;;;;;;3.65;1.73;;;;;;;25.41;30.24;97217.03;5028558;28;20029;-23
2021/03/20 00:10:38;;;;;;;6.13;1.67;;;;;;;25.42;30.27;97213.50;5010679;28;20032;-23
2021/03/20 00:13:04;;;;;;;1.80;1.27;;;;;;;25.42;30.22;97216.09;5027583;28;20036;-25
2021/03/20 00:15:29;;;;;;;2.97;1.70;;;;;;;25.41;30.31;97211.78;5025466;28;20025;-24
2021/03/20 00:17:55;;;;;;;2.80;1.63;;;;;;;25.41;30.23;97211.78;5025189;28;20325;-23
2021/03/20 00:20:26;;;;;;;2.22;1.55;;;;;;;25.40;30.30;97215.34;5029876;28;20086;-25
2021/03/20 00:22:51;;;;;;;9.98;1.80;;;;;;;25.40;30.45;97216.16;5029375;28;20024;-25
2021/03/20 00:25:17;;;;;;;4.00;1.95;;;;;;;25.40;30.34;97210.09;5013739;28;20040;-25
2021/03/20 00:27:42;;;;;;;2.80;1.40;;;;;;;25.39;30.36;97216.25;5035005;28;20029;-22
2021/03/20 00:30:09;;;;;;;2.50;1.35;;;;;;;25.40;30.25;97215.34;5026753;28;20029;-25
2021/03/20 00:32:34;;;;;;;2.42;1.70;;;;;;;25.39;30.34;97217.09;5024282;28;20041;-23
2021/03/20 00:35:00;;;;;;;3.40;1.20;;;;;;;25.39;30.17;97224.97;5027647;28;20024;-25
2021/03/20 00:37:25;;;;;;;3.13;1.70;;;;;;;25.39;30.21;97219.72;5026831;28;20056;-23
2021/03/20 00:39:51;;;;;;;2.50;1.40;;;;;;;25.38;30.18;97217.16;5028451;28;20723;-23
2021/03/20 00:42:16;;;;;;;2.50;1.70;;;;;;;25.38;30.08;97211.91;5024123;28;20040;-24
2021/03/20 00:44:41;;;;;;;3.05;1.45;;;;;;;25.37;30.09;97218.09;5026841;28;20029;-25
2021/03/20 00:47:07;;;;;;;1.70;1.35;;;;;;;25.37;30.29;97211.09;5025568;28;20041;-23
2021/03/20 00:49:32;;;;;;;2.28;1.50;;;;;;;25.37;30.20;97215.47;5031082;28;20020;-25
2021/03/20 00:51:58;;;;;;;2.92;1.77;;;;;;;25.36;30.23;97213.78;5026351;28;20024;-25
2021/03/20 00:54:23;;;;;;;2.83;1.52;;;;;;;25.35;30.15;97207.66;5028281;28;20576;-23
2021/03/20 00:56:49;;;;;;;2.42;1.70;;;;;;;25.35;30.17;97226.03;5026905;28;20053;-25
2021/03/20 00:59:14;;;;;;;2.40;1.55;;;;;;;25.35;30.37;97219.94;5026007;28;20032;-24
2021/03/20 01:01:40;;;;;;;2.55;1.70;;;;;;;25.34;30.15;97223.47;5028488;28;20653;-25
2021/03/20 01:04:05;;;;;;;3.60;1.50;;;;;;;25.34;30.31;97221.72;5027953;28;20047;-25
2021/03/20 01:06:30;;;;;;;1.38;1.08;;;;;;;25.35;30.15;97222.56;5027834;28;20029;-25
2021/03/20 01:08:59;;;;;;;1.65;1.13;;;;;;;25.34;30.07;97220.84;5026072;28;20036;-23
2021/03/20 01:11:25;;;;;;;2.90;1.27;;;;;;;25.33;30.38;97216.53;5025113;28;20498;-22
2021/03/20 01:13:51;;;;;;;2.75;1.38;;;;;;;25.33;30.13;97214.75;5031538;28;20024;-24
2021/03/20 01:16:16;;;;;;;2.05;1.20;;;;;;;25.31;30.27;97212.22;5033985;28;20072;-23
2021/03/20 01:18:41;;;;;;;2.63;1.40;;;;;;;25.33;30.28;97208.66;5024402;28;20040;-26
2021/03/20 01:21:07;;;;;;;2.88;1.50;;;;;;;25.31;30.16;97211.34;5024220;28;20737;-23
2021/03/20 01:23:33;;;;;;;2.47;1.23;;;;;;;25.31;30.16;97214.81;5035527;28;20493;-24
2021/03/20 01:25:58;;;;;;;2.75;1.42;;;;;;;25.30;30.32;97213.13;5031108;28;20032;-23
2021/03/20 01:28:27;;;;;;;2.92;1.33;;;;;;;25.30;30.20;97225.38;5034344;28;20523;-24
2021/03/20 01:30:52;;;;;;;1.77;1.40;;;;;;;25.30;30.25;97214.88;5027495;28;20415;-24
2021/03/20 01:33:18;;;;;;;2.97;1.20;;;;;;;25.29;30.09;97216.66;5024260;28;20029;-25
2021/03/20 01:35:43;;;;;;;2.20;1.42;;;;;;;25.29;30.23;97215.81;5025220;28;20711;-24
2021/03/20 01:38:09;;;;;;;3.33;1.60;;;;;;;25.29;30.24;97208.78;5026842;28;20450;-24
2021/03/20 01:40:37;;;;;;;4.70;1.30;;;;;;;25.28;30.10;97214.97;5026309;28;20333;-24
2021/03/20 01:43:03;;;;;;;1.98;1.40;;;;;;;25.28;30.06;97228.06;5026019;28;20246;-23
2021/03/20 01:45:30;;;;;;;3.78;1.38;;;;;;;25.27;30.12;97221.13;5023892;28;20128;-24
2021/03/20 01:48:19;;;;;;;2.20;1.40;;;;;;;25.28;30.13;97228.06;5024385;28;20048;-25
2021/03/20 01:50:50;;;;;;;5.10;1.50;;;;;;;25.27;30.17;97223.75;5017584;28;20037;-23
2021/03/20 01:53:21;;;;;;;1.90;1.70;;;;;;;25.27;30.12;97230.75;5033065;28;20456;-22
2021/03/20 01:55:47;;;;;;;2.55;1.33;;;;;;;25.27;30.01;97229.00;5031008;28;20111;-23
2021/03/20 01:58:14;;;;;;;2.30;1.33;;;;;;;25.27;30.20;97223.75;5037629;28;20104;-22
2021/03/20 02:00:42;;;;;;;2.10;1.38;;;;;;;25.26;30.17;97235.16;5020471;28;20033;-26
2021/03/20 02:03:27;;;;;;;3.47;1.30;;;;;;;25.26;30.12;97229.94;5037047;28;20686;-26
2021/03/20 02:05:54;;;;;;;2.70;1.27;;;;;;;25.27;30.12;97233.38;5030253;28;20029;-28
2021/03/20 02:08:19;;;;;;;3.17;1.20;;;;;;;25.26;30.10;97239.56;5036111;28;20021;-26
2021/03/20 02:10:45;;;;;;;2.00;1.02;;;;;;;25.25;29.92;97233.44;5015786;28;20032;-29
2021/03/20 02:13:26;;;;;;;1.88;1.27;;;;;;;25.25;29.90;97236.06;5029816;28;20050;-28
2021/03/20 02:15:59;;;;;;;3.35;1.05;;;;;;;25.26;30.13;97235.16;5030242;28;20451;-26
2021/03/20 02:19:01;;;;;;;2.05;1.35;;;;;;;25.26;30.05;97235.16;5026828;28;20036;-28
2021/03/20 02:21:35;;;;;;;2.17;1.25;;;;;;;25.24;29.74;97237.00;4995632;28;20496;-26
2021/03/20 02:24:32;;;;;;;1.42;1.17;;;;;;;25.24;30.04;97231.75;5030007;28;20628;-27
2021/03/20 02:27:03;;;;;;;2.30;1.30;;;;;;;25.24;30.00;97226.50;5051026;28;20573;-26
2021/03/20 02:29:43;;;;;;;1.92;1.10;;;;;;;25.24;29.81;97226.50;5048452;28;20052;-26
2021/03/20 02:32:18;;;;;;;2.17;1.20;;;;;;;25.24;30.00;97225.66;5042565;28;20039;-24
2021/03/20 02:34:47;;;;;;;2.42;1.45;;;;;;;25.22;30.02;97228.34;5047468;28;20036;-26
2021/03/20 02:37:32;;;;;;;1.83;1.30;;;;;;;25.22;29.90;97223.09;5031192;28;20032;-26
2021/03/20 02:39:58;;;;;;;1.75;1.10;;;;;;;25.22;29.85;97223.09;5044499;28;20035;-26
2021/03/20 02:42:35;;;;;;;1.80;1.17;;;;;;;25.21;29.90;97229.28;5044822;28;20024;-26
2021/03/20 02:45:02;;;;;;;1.70;1.15;;;;;;;25.22;29.93;97223.09;5031144;28;20052;-26
2021/03/20 02:47:38;;;;;;;1.50;1.27;;;;;;;25.23;30.02;97223.94;5049072;28;20072;-26
2021/03/20 02:50:07;;;;;;;1.88;1.30;;;;;;;25.22;29.84;97217.00;5031051;28;20032;-26
2021/03/20 02:52:33;;;;;;;2.03;1.25;;;;;;;25.21;29.99;97218.78;5019600;28;20120;-25
2021/03/20 02:55:01;;;;;;;1.50;1.20;;;;;;;25.22;29.76;97217.88;5050189;28;20020;-26
2021/03/20 02:57:42;;;;;;;6.25;1.95;;;;;;;25.21;29.61;97220.53;5045694;28;20353;-26
2021/03/20 03:00:14;;;;;;;2.47;1.27;;;;;;;25.18;29.67;97211.03;5047175;28;20803;-26
2021/03/20 03:02:39;;;;;;;3.35;1.13;;;;;;;25.18;29.63;97209.25;5028686;28;20636;-26
2021/03/20 03:05:10;;;;;;;1.48;1.05;;;;;;;25.17;29.79;97212.81;5030527;28;20031;-30
2021/03/20 03:07:41;;;;;;;2.80;1.02;;;;;;;25.17;29.65;97214.59;5043305;28;20025;-26
2021/03/20 03:10:17;;;;;;;3.85;1.20;;;;;;;25.17;29.82;97209.34;5028229;28;20051;-27
2021/03/20 03:12:58;;;;;;;1.95;1.10;;;;;;;25.17;29.76;97211.97;5041422;28;20051;-27
2021/03/20 03:15:28;;;;;;;2.65;1.23;;;;;;;25.18;29.86;97208.41;5045107;28;21409;-26
2021/03/20 03:18:27;;;;;;;3.25;0.93;;;;;;;25.18;29.75;97211.03;5041571;28;20017;-25
2021/03/20 03:20:54;;;;;;;2.75;1.00;;;;;;;25.17;29.86;97204.09;5073934;28;20029;-27
2021/03/20 03:23:21;;;;;;;1.83;0.98;;;;;;;25.18;29.96;97211.03;5043508;28;20019;-26
2021/03/20 03:25:50;;;;;;;3.72;1.13;;;;;;;25.17;29.88;97204.09;5062150;28;20126;-27
2021/03/20 03:28:20;;;;;;;1.17;0.88;;;;;;;25.18;29.76;97211.03;5040276;28;20097;-26
2021/03/20 03:30:46;;;;;;;1.67;0.98;;;;;;;25.16;29.79;97208.47;5043382;28;20074;-26
2021/03/20 03:33:24;;;;;;;1.00;0.90;;;;;;;25.17;29.89;97211.97;5043855;28;20032;-26
2021/03/20 03:35:59;;;;;;;3.10;1.30;;;;;;;25.17;29.87;97217.22;5053574;28;20021;-26
2021/03/20 03:38:47;;;;;;;1.30;0.88;;;;;;;25.16;29.91;97213.72;5062104;28;20073;-26
2021/03/20 03:41:17;;;;;;;2.55;1.20;;;;;;;25.16;29.76;97221.59;5053935;28;20044;-26
2021/03/20 03:43:43;;;;;;;1.52;0.85;;;;;;;25.17;29.77;97219.84;5045946;28;20024;-25
2021/03/20 03:46:09;;;;;;;1.10;0.80;;;;;;;25.16;29.86;97223.34;5031710;28;20051;-26
2021/03/20 03:48:34;;;;;;;1.23;1.10;;;;;;;25.15;29.84;97233.00;5050749;28;20027;-26
2021/03/20 03:51:14;;;;;;;1.92;1.10;;;;;;;25.15;29.94;97240.88;5043412;28;20016;-26
2021/03/20 03:53:39;;;;;;;0.90;0.80;;;;;;;25.15;29.73;97243.50;5049103;28;20056;-25
2021/03/20 03:56:23;;;;;;;1.52;0.75;;;;;;;25.16;29.83;97239.09;5052601;28;20036;-28
2021/03/20 03:59:14;;;;;;;2.95;0.80;;;;;;;25.15;29.93;97235.63;5045139;28;20032;-26
2021/03/20 04:02:01;;;;;;;5.40;0.90;;;;;;;25.15;29.64;97234.78;5053525;28;20223;-26
2021/03/20 04:04:53;;;;;;;2.15;1.00;;;;;;;25.14;29.75;97251.44;5062995;28;20472;-26
2021/03/20 04:07:27;;;;;;;1.88;0.80;;;;;;;25.13;29.65;97245.31;5056622;28;20435;-26
2021/03/20 04:09:56;;;;;;;2.55;0.77;;;;;;;25.13;29.76;97244.50;5064349;28;20020;-25
2021/03/20 04:12:57;;;;;;;1.20;0.85;;;;;;;25.12;29.87;97242.75;5030461;28;20048;-24
2021/03/20 04:15:37;;;;;;;1.50;0.95;;;;;;;25.12;29.88;97241.00;5057151;28;20036;-26
2021/03/20 04:18:09;;;;;;;1.05;0.70;;;;;;;25.13;29.92;97247.13;5055607;28;20021;-27
2021/03/20 04:21:13;;;;;;;1.27;0.90;;;;;;;25.11;29.84;97249.81;5052240;28;20043;-27
2021/03/20 04:23:43;;;;;;;1.30;0.80;;;;;;;25.11;29.93;97254.19;5042337;28;20488;-26
2021/03/20 04:26:17;;;;;;;4.22;0.82;;;;;;;25.10;29.68;97248.09;5028092;28;20118;-26
2021/03/20 04:28:55;;;;;;;3.67;0.95;;;;;;;25.11;29.87;97235.81;5045527;28;20443;-25
2021/03/20 04:31:27;;;;;;;1.85;0.90;;;;;;;25.10;29.81;97226.25;5056694;28;20123;-25
2021/03/20 04:34:09;;;;;;;0.80;0.75;;;;;;;25.09;29.88;97235.88;5041128;28;20037;-26
2021/03/20 04:36:43;;;;;;;1.85;0.63;;;;;;;25.09;29.98;97241.13;5055320;28;20107;-26
2021/03/20 04:39:09;;;;;;;1.05;0.88;;;;;;;25.09;29.97;97238.50;5037729;28;20163;-28
2021/03/20 04:41:34;;;;;;;1.77;0.75;;;;;;;25.09;29.92;97240.28;5043039;28;20032;-25
2021/03/20 04:44:00;;;;;;;1.17;0.70;;;;;;;25.10;29.79;97242.00;5056317;28;20082;-27
2021/03/20 04:46:28;;;;;;;1.45;0.63;;;;;;;25.10;29.86;97255.09;5044976;28;20045;-28
2021/03/20 04:49:03;;;;;;;1.35;0.60;;;;;;;25.08;30.03;97263.03;5010012;28;20281;-25
2021/03/20 04:51:38;;;;;;;1.88;1.00;;;;;;;25.08;29.97;97268.28;5028700;28;20026;-27
2021/03/20 04:54:19;;;;;;;1.38;0.70;;;;;;;25.08;30.08;97272.66;5013470;28;20076;-27
2021/03/20 04:56:52;;;;;;;1.75;0.70;;;;;;;25.08;29.82;97267.41;5028153;28;20033;-27
2021/03/20 04:59:45;;;;;;;0.75;0.70;;;;;;;25.08;29.74;97280.53;5025806;28;20902;-26
2021/03/20 05:02:21;;;;;;;1.02;0.65;;;;;;;25.07;29.85;97276.19;5039758;28;20170;-26
2021/03/20 05:04:46;;;;;;;1.38;0.77;;;;;;;25.05;29.93;97277.13;5041892;28;20149;-26
2021/03/20 05:07:12;;;;;;;1.25;0.65;;;;;;;25.06;29.91;97285.84;5045253;28;20033;-25
2021/03/20 05:09:37;;;;;;;1.25;0.60;;;;;;;25.05;29.92;97271.88;5026725;28;20024;-25
2021/03/20 05:12:17;;;;;;;1.63;0.73;;;;;;;25.04;29.90;97267.56;5041122;28;20032;-25
2021/03/20 05:14:47;;;;;;;0.77;0.60;;;;;;;25.06;29.85;97272.75;5043015;28;20157;-27
2021/03/20 05:17:16;;;;;;;2.08;0.60;;;;;;;25.06;29.90;97264.88;5014614;28;20127;-25
2021/03/20 05:19:41;;;;;;;1.80;0.45;;;;;;;25.07;29.99;97268.34;5030225;28;20020;-27
2021/03/20 05:22:06;;;;;;;1.55;0.60;;;;;;;25.05;29.83;97269.25;5042131;28;21809;-26
2021/03/20 05:24:34;;;;;;;0.65;0.50;;;;;;;25.04;29.83;97267.56;5040981;28;20032;-27
2021/03/20 05:27:00;;;;;;;0.80;0.70;;;;;;;25.05;29.76;97269.25;5046601;28;20492;-26
2021/03/20 05:29:25;;;;;;;1.58;1.23;;;;;;;25.04;29.86;97275.44;5043723;28;21238;-26
2021/03/20 05:31:51;;;;;;;0.95;0.70;;;;;;;25.03;29.83;97271.13;5042474;28;21727;-27
2021/03/20 05:34:30;;;;;;;0.90;0.73;;;;;;;25.04;29.96;97272.81;5061988;28;20025;-26
2021/03/20 05:36:56;;;;;;;0.80;0.60;;;;;;;25.04;30.03;97272.81;5046390;28;20520;-26
2021/03/20 05:39:22;;;;;;;0.82;0.75;;;;;;;25.04;30.02;97270.19;5040166;28;20062;-26
2021/03/20 05:41:59;;;;;;;0.47;0.40;;;;;;;25.04;29.82;97272.81;5042415;28;20035;-25
2021/03/20 05:44:36;;;;;;;0.80;0.60;;;;;;;25.03;29.96;97276.34;5043132;28;20086;-26
2021/03/20 05:47:10;;;;;;;1.00;0.50;;;;;;;25.04;29.85;97280.69;5045141;28;20127;-26
2021/03/20 05:49:45;;;;;;;0.60;0.50;;;;;;;25.03;29.74;97291.22;5039011;28;20036;-26
2021/03/20 05:52:16;;;;;;;0.80;0.50;;;;;;;25.03;29.86;97297.34;5056098;28;20025;-26
2021/03/20 05:55:03;;;;;;;0.57;0.57;;;;;;;25.02;29.82;97285.13;5059783;28;20036;-31
2021/03/20 05:57:40;;;;;;;0.93;0.60;;;;;;;25.02;29.92;97287.75;5042933;28;20032;-26
2021/03/20 06:00:19;;;;;;;1.00;0.82;;;;;;;25.01;29.74;97280.78;5050568;28;20709;-25
2021/03/20 06:02:47;;;;;;;1.02;0.80;;;;;;;25.02;29.81;97298.22;5053825;28;20021;-26
2021/03/20 06:05:30;;;;;;;0.50;0.50;;;;;;;25.01;30.06;97304.41;5058137;28;20055;-26
2021/03/20 06:08:20;;;;;;;0.73;0.70;;;;;;;25.02;30.04;97310.50;5039773;28;20081;-26
2021/03/20 06:11:03;;;;;;;2.33;0.82;;;;;;;25.01;30.05;97317.50;5049067;28;20055;-25
2021/03/20 06:13:56;;;;;;;0.55;0.45;;;;;;;25.02;29.91;97323.63;5047173;28;20052;-25
2021/03/20 06:16:26;;;;;;;0.70;0.60;;;;;;;25.00;29.99;97321.06;5040346;28;20167;-28
2021/03/20 06:19:17;;;;;;;0.50;0.50;;;;;;;24.99;30.16;97321.97;5043466;28;20028;-26
2021/03/20 06:21:58;;;;;;;1.98;0.57;;;;;;;24.99;29.86;97321.09;5028345;28;20516;-28
2021/03/20 06:24:51;;;;;;;2.05;0.50;;;;;;;24.99;30.01;97318.50;5045661;28;20488;-26
2021/03/20 06:27:18;;;;;;;0.63;0.63;;;;;;;24.98;29.89;97325.50;5042828;28;20048;-29
2021/03/20 06:29:52;;;;;;;0.50;0.40;;;;;;;24.99;30.04;97327.22;5044938;28;20032;-24
2021/03/20 06:32:22;;;;;;;0.75;0.50;;;;;;;24.98;30.06;97332.53;5041658;28;20044;-26
2021/03/20 06:35:07;;;;;;;0.65;0.55;;;;;;;24.98;30.27;97328.13;5041083;28;20021;-28
2021/03/20 06:37:35;;;;;;;0.40;0.40;;;;;;;24.99;29.92;97331.59;5041936;28;20670;-27
2021/03/20 06:40:05;;;;;;;0.40;0.40;;;;;;;24.98;30.11;97338.59;5042519;28;20629;-29
2021/03/20 06:42:35;;;;;;;0.40;0.40;;;;;;;24.98;30.10;97327.28;5045558;28;20040;-27
2021/03/20 06:45:03;;;;;;;0.40;0.40;;;;;;;24.99;30.06;97342.09;5024289;28;20119;-27
2021/03/20 06:47:32;;;;;;;1.70;0.65;;;;;;;25.00;30.02;97349.91;5042923;28;20527;-28
2021/03/20 06:49:58;;;;;;;1.85;0.50;;;;;;;25.00;30.11;97354.28;5041914;28;20091;-29
2021/03/20 06:52:23;;;;;;;0.43;0.32;;;;;;;25.00;29.85;97360.38;5030892;28;20033;-26
2021/03/20 06:54:57;;;;;;;0.50;0.40;;;;;;;25.01;30.06;97351.59;5041779;28;20029;-26
2021/03/20 06:57:22;;;;;;;1.48;0.63;;;;;;;25.00;29.93;97360.38;5041851;28;20032;-26
2021/03/20 06:59:48;;;;;;;1.42;0.60;;;;;;;25.01;29.86;97362.09;5040006;28;20013;-27
2021/03/20 07:02:37;;;;;;;0.70;0.40;;;;;;;25.01;29.95;97364.69;5041281;28;20098;-28
2021/03/20 07:05:25;;;;;;;0.73;0.43;;;;;;;25.01;29.97;97367.31;5042424;28;20056;-26
2021/03/20 07:08:02;;;;;;;0.40;0.40;;;;;;;25.02;30.08;97369.03;5043981;28;20612;-28
2021/03/20 07:10:33;;;;;;;0.40;0.40;;;;;;;25.01;29.96;97371.72;5024690;28;20491;-27
2021/03/20 07:13:08;;;;;;;0.40;0.40;;;;;;;25.01;29.84;97371.72;5047342;28;20142;-26
2021/03/20 07:15:34;;;;;;;1.08;0.32;;;;;;;25.02;30.10;97383.94;5045106;28;20044;-26
2021/03/20 07:18:38;;;;;;;1.58;0.60;;;;;;;25.01;29.97;97388.31;5046901;28;20032;-27
2021/03/20 07:21:28;;;;;;;0.45;0.45;;;;;;;25.01;29.91;97380.44;5039002;28;20045;-28
2021/03/20 07:24:06;;;;;;;0.43;0.40;;;;;;;25.01;29.85;97375.19;5030600;28;20040;-26
2021/03/20 07:26:33;;;;;;;0.40;0.40;;;;;;;25.01;29.76;97377.81;5048930;28;20075;-29
2021/03/20 07:28:59;;;;;;;0.68;0.32;;;;;;;25.01;30.13;97377.81;5045109;28;20143;-27
2021/03/20 07:31:25;;;;;;;0.30;0.30;;;;;;;25.01;29.91;97383.06;5049079;28;20976;-27
2021/03/20 07:33:52;;;;;;;1.15;0.50;;;;;;;25.01;29.93;97367.31;5043515;28;20032;-26
2021/03/20 07:36:31;;;;;;;2.40;0.40;;;;;;;25.03;30.06;97375.13;5046194;28;20768;-27
2021/03/20 07:39:13;;;;;;;0.40;0.40;;;;;;;25.03;30.04;97383.88;5044539;28;20031;-28
2021/03/20 07:41:44;;;;;;;0.63;0.40;;;;;;;25.04;30.14;97377.69;5047265;28;20685;-28
2021/03/20 07:44:10;;;;;;;1.30;0.47;;;;;;;25.03;30.16;97386.50;5046266;28;20036;-26
2021/03/20 07:46:35;;;;;;;1.45;0.35;;;;;;;25.04;30.06;97390.81;5045798;28;20055;-28
2021/03/20 07:49:06;;;;;;;1.00;0.32;;;;;;;25.04;30.17;97392.56;5045974;28;20029;-26
2021/03/20 07:51:45;;;;;;;1.95;0.50;;;;;;;25.03;29.96;97391.72;5046288;28;20127;-28
2021/03/20 07:54:23;;;;;;;4.78;0.40;;;;;;;25.05;30.11;97402.13;5062605;28;20024;-27
2021/03/20 07:56:48;;;;;;;1.27;0.60;;;;;;;25.04;29.90;97389.94;5048258;28;20526;-27
2021/03/20 07:59:28;;;;;;;0.77;0.50;;;;;;;25.03;29.94;97391.72;5036705;28;20037;-27
2021/03/20 08:01:58;;;;;;;7.57;1.65;;;;;;;25.01;28.91;97393.53;5037245;28;20454;-28
2021/03/20 08:04:46;;;;;;;4.30;1.45;;;;;;;24.97;28.30;97391.97;5051214;28;20112;-28
2021/03/20 08:07:11;;;;;;;3.85;1.20;;;;;;;24.93;28.15;97406.09;5053103;28;20537;-25
2021/03/20 08:09:37;;;;;;;7.43;1.60;;;;;;;24.88;28.22;97408.94;5033074;28;20036;-25
2021/03/20 08:12:08;;;;;;;6.97;1.27;;;;;;;24.83;27.89;97409.97;5051787;28;20025;-27
2021/03/20 08:14:38;;;;;;;4.90;1.58;;;;;;;24.80;27.64;97421.44;5050906;28;20024;-27
2021/03/20 08:17:05;;;;;;;6.40;1.52;;;;;;;24.75;27.45;97432.09;5053403;28;20040;-26
2021/03/20 08:19:31;;;;;;;2.83;1.40;;;;;;;24.72;27.19;97434.00;5054413;28;20071;-26
2021/03/20 08:22:24;;;;;;;2.90;1.30;;;;;;;24.68;27.10;97435.88;5034489;28;20743;-26
2021/03/20 08:25:07;;;;;;;2.90;1.33;;;;;;;24.65;27.17;97443.84;5055573;28;20491;-28
2021/03/20 08:27:47;;;;;;;3.72;1.48;;;;;;;24.62;27.11;97446.59;5058234;28;23120;-26
2021/03/20 08:30:16;;;;;;;1.70;1.13;;;;;;;24.59;27.00;97438.84;5055533;28;20044;-27
2021/03/20 08:32:47;;;;;;;2.72;1.30;;;;;;;24.56;26.99;97441.59;5057641;28;20217;-27
2021/03/20 08:35:47;;;;;;;3.22;1.35;;;;;;;24.56;27.09;97441.59;5055398;28;20565;-28
2021/03/20 08:38:18;;;;;;;3.17;1.30;;;;;;;24.52;27.02;97428.59;5014104;28;20041;-26
2021/03/20 08:40:57;;;;;;;2.28;1.23;;;;;;;24.52;27.10;97417.28;5051246;28;20024;-29
2021/03/20 08:43:49;;;;;;;2.35;1.45;;;;;;;24.51;27.11;97424.28;5052023;28;20020;-27
2021/03/20 08:46:43;;;;;;;1.50;1.20;;;;;;;24.50;26.71;97433.06;5051378;28;20045;-26
2021/03/20 08:49:26;;;;;;;1.13;1.00;;;;;;;24.49;26.82;97451.44;5059230;28;20399;-26
2021/03/20 08:52:09;;;;;;;3.33;1.15;;;;;;;24.47;26.45;97443.63;5053852;28;20035;-27
2021/03/20 08:55:01;;;;;;;3.28;1.48;;;;;;;24.45;26.45;97455.09;5050486;28;20020;-28
2021/03/20 08:57:34;;;;;;;1.73;1.10;;;;;;;24.44;26.31;97462.06;5057305;28;20040;-26
2021/03/20 09:00:00;;;;;;;4.68;1.85;;;;;;;24.44;26.27;97456.84;5049473;28;20037;-26
2021/03/20 09:02:25;;;;;;;2.47;1.10;;;;;;;24.42;26.00;97458.69;5035237;28;20051;-27
2021/03/20 09:04:57;;;;;;;2.72;1.35;;;;;;;24.42;26.31;97466.53;5051896;28;20139;-27
2021/03/20 09:07:48;;;;;;;1.63;1.00;;;;;;;24.41;26.19;97467.44;5039538;28;20396;-26
2021/03/20 09:10:26;;;;;;;4.40;1.02;;;;;;;24.40;25.94;97466.59;5043549;28;20535;-27
2021/03/20 09:12:58;;;;;;;1.67;1.10;;;;;;;24.39;26.07;97466.63;5052025;28;20028;-27
2021/03/20 09:15:26;;;;;;;3.53;1.25;;;;;;;24.38;25.85;97468.44;5051733;28;20034;-28
2021/03/20 09:17:52;;;;;;;2.15;1.20;;;;;;;24.38;25.92;97467.56;5054101;28;20130;-34
2021/03/20 09:20:27;;;;;;;3.00;1.23;;;;;;;24.37;25.71;97464.06;5035440;28;20083;-28
2021/03/20 09:22:53;;;;;;;1.63;1.00;;;;;;;24.37;25.52;97466.69;5052317;28;20425;-26
2021/03/20 09:25:33;;;;;;;2.35;1.02;;;;;;;24.35;25.56;97468.53;5051964;28;20119;-27
2021/03/20 09:28:08;;;;;;;3.67;1.17;;;;;;;24.35;25.58;97468.53;5034040;28;20064;-26
2021/03/20 09:30:54;;;;;;;2.20;1.15;;;;;;;24.35;25.30;97470.28;5050099;28;20523;-26
2021/03/20 09:33:19;;;;;;;2.65;1.40;;;;;;;24.34;25.59;97466.81;5052358;28;20688;-27
2021/03/20 09:35:52;;;;;;;2.42;1.30;;;;;;;24.34;25.66;97463.34;5053579;28;20036;-26
2021/03/20 09:38:33;;;;;;;2.17;1.00;;;;;;;24.37;25.91;97471.09;5054722;28;20119;-30
2021/03/20 09:41:13;;;;;;;2.30;0.70;;;;;;;24.41;26.33;97464.84;5054190;28;20508;-27
2021/03/20 09:43:55;;;;;;;2.95;1.20;;;;;;;24.45;26.38;97462.94;5051359;28;20362;-28
2021/03/20 09:46:38;;;;;;;3.35;1.33;;;;;;;24.48;25.34;97471.53;5032976;28;20037;-26
2021/03/20 09:49:07;;;;;;;10.68;2.35;;;;;;;24.36;23.10;97467.59;5027337;28;20552;-28
2021/03/20 09:51:51;;;;;;;5.15;2.03;;;;;;;24.09;21.93;97464.19;5032884;28;20040;-26
2021/03/20 09:54:22;;;;;;;5.95;1.95;;;;;;;23.91;22.11;97471.75;5032361;28;20033;-27
2021/03/20 09:57:22;;;;;;;5.00;1.45;;;;;;;23.81;22.85;97467.75;5033718;28;20032;-26
2021/03/20 09:59:48;;;;;;;4.20;1.20;;;;;;;23.74;23.42;97457.50;5030261;28;20059;-27
2021/03/20 10:02:19;;;;;;;4.00;1.40;;;;;;;23.73;23.54;97453.19;5048251;28;20131;-27
2021/03/20 10:05:06;;;;;;;5.90;1.27;;;;;;;23.73;23.83;97455.81;5052970;28;20021;-26
2021/03/20 10:07:32;;;;;;;2.80;1.23;;;;;;;23.78;24.18;97457.38;5052223;28;20107;-27
2021/03/20 10:10:00;;;;;;;2.90;1.38;;;;;;;23.82;24.37;97459.88;5053860;28;20073;-28
2021/03/20 10:12:36;;;;;;;3.78;1.02;;;;;;;23.88;24.59;97450.94;5048035;28;20036;-26
2021/03/20 10:15:12;;;;;;;4.18;1.10;;;;;;;23.93;24.51;97450.78;5054293;28;20029;-27
2021/03/20 10:17:57;;;;;;;2.72;0.95;;;;;;;23.99;24.77;97451.41;5051938;28;20041;-27
2021/03/20 10:20:24;;;;;;;3.45;1.10;;;;;;;24.04;24.61;97440.78;5057269;28;20115;-29
2021/03/20 10:23:01;;;;;;;2.08;1.10;;;;;;;24.11;25.01;97449.31;5056410;28;20031;-26
2021/03/20 10:25:27;;;;;;;5.25;1.38;;;;;;;24.16;25.10;97436.03;5056660;28;20435;-27
2021/03/20 10:28:01;;;;;;;6.82;1.38;;;;;;;24.21;25.07;97434.13;5042687;28;20046;-26
2021/03/20 10:30:31;;;;;;;7.60;1.42;;;;;;;24.26;25.25;97448.75;5055771;28;20067;-27
2021/03/20 10:33:06;;;;;;;14.82;1.90;;;;;;;24.31;25.37;97439.88;5052165;28;20615;-27
2021/03/20 10:35:36;;;;;;;4.18;1.63;;;;;;;24.34;25.55;97434.53;5052285;28;20031;-27
2021/03/20 10:38:25;;;;;;;8.13;1.75;;;;;;;24.41;25.54;97446.50;5055659;28;20032;-27
2021/03/20 10:41:03;;;;;;;10.23;2.30;;;;;;;24.45;25.28;97442.84;5060324;28;20028;-27
2021/03/20 10:43:30;;;;;;;5.97;1.60;;;;;;;24.48;24.87;97447.97;5057071;28;20027;-26
2021/03/20 10:45:56;;;;;;;6.68;2.25;;;;;;;24.50;24.77;97451.38;5060776;28;20041;-27
2021/03/20 10:48:25;;;;;;;5.30;1.75;;;;;;;24.50;24.44;97456.63;5057503;28;20396;-27
2021/03/20 10:50:59;;;;;;;7.55;2.00;;;;;;;24.53;24.61;97456.50;5038972;28;20055;-27
2021/03/20 10:53:26;;;;;;;10.93;2.10;;;;;;;24.55;24.52;97453.81;5059440;28;20036;-28
2021/03/20 10:55:57;;;;;;;10.95;2.00;;;;;;;24.56;24.48;97452.91;5062721;28;20029;-27
2021/03/20 10:58:27;;;;;;;7.88;2.25;;;;;;;24.57;24.17;97445.91;5041610;28;20028;-26
2021/03/20 11:00:52;;;;;;;7.45;2.00;;;;;;;24.57;24.03;97454.63;5058329;28;20048;-27
2021/03/20 11:03:35;;;;;;;7.20;1.75;;;;;;;24.57;23.61;97440.66;5057546;28;20028;-26
2021/03/20 11:06:17;;;;;;;7.13;1.58;;;;;;;24.53;23.70;97440.78;5059670;28;20139;-26
2021/03/20 11:08:44;;;;;;;4.60;1.45;;;;;;;24.56;24.15;97441.59;5061473;28;20036;-26
2021/03/20 11:11:23;;;;;;;9.15;2.03;;;;;;;24.56;23.67;97438.97;5058146;28;20059;-27
2021/03/20 11:13:50;;;;;;;11.05;1.88;;;;;;;24.57;23.60;97438.03;5058574;28;20095;-27
2021/03/20 11:16:15;;;;;;;7.47;1.85;;;;;;;24.56;23.43;97439.81;5062161;28;20040;-27
2021/03/20 11:19:15;;;;;;;7.25;1.67;;;;;;;24.57;23.54;97444.16;5057692;28;20119;-29
2021/03/20 11:21:42;;;;;;;9.02;1.55;;;;;;;24.59;24.14;97447.56;5043210;28;20071;-30
2021/03/20 11:24:26;;;;;;;38.38;2.92;;;;;;;24.61;23.39;97440.50;5061361;28;20260;-27
2021/03/20 11:26:52;;;;;;;5.30;1.30;;;;;;;24.59;22.96;97439.69;5060770;28;20496;-27
2021/03/20 11:29:20;;;;;;;3.00;1.95;;;;;;;24.56;22.35;97439.81;5056876;28;20553;-26
2021/03/20 11:31:50;;;;;;;4.65;2.17;;;;;;;24.50;21.57;97435.66;5056896;28;20059;-28
2021/03/20 11:34:29;;;;;;;13.50;2.08;;;;;;;24.42;21.51;97439.47;5055277;28;20051;-27
2021/03/20 11:36:55;;;;;;;7.60;1.77;;;;;;;24.33;21.04;97443.31;5041624;28;20024;-27
2021/03/20 11:39:21;;;;;;;9.90;1.98;;;;;;;24.26;20.80;97438.28;5063467;28;20036;-29
2021/03/20 11:41:46;;;;;;;20.80;2.10;;;;;;;24.17;19.81;97438.59;5061457;28;20028;-27
2021/03/20 11:44:23;;;;;;;3.33;1.67;;;;;;;24.08;19.84;97431.06;5062812;28;20621;-28
2021/03/20 11:47:14;;;;;;;8.98;2.05;;;;;;;23.98;19.15;97423.53;5061491;28;20044;-27
2021/03/20 11:49:48;;;;;;;11.07;2.00;;;;;;;23.89;19.57;97434.31;5038155;28;20036;-27
2021/03/20 11:52:15;;;;;;;5.25;2.08;;;;;;;23.81;19.15;97436.34;5049472;28;20033;-26
2021/03/20 11:54:40;;;;;;;3.22;1.65;;;;;;;23.74;18.89;97436.56;5057242;28;20027;-26
2021/03/20 11:57:21;;;;;;;7.50;1.98;;;;;;;23.66;19.07;97429.88;5064174;28;20032;-27
2021/03/20 11:59:46;;;;;;;13.85;2.00;;;;;;;23.63;19.51;97428.22;5062061;28;20028;-27
2021/03/20 12:02:24;;;;;;;7.75;2.13;;;;;;;23.62;19.12;97422.16;5042553;28;20047;-28